createdAt,value
2023-04-09T00:03:26.581Z,50.03
2023-04-09T00:07:28.330Z,49.90
2023-04-09T00:11:30.308Z,48.55
2023-04-09T00:15:32.141Z,46.85
2023-04-09T00:19:33.823Z,51.90
2023-04-09T00:23:36.029Z,50.90
2023-04-09T00:27:37.666Z,49.42
2023-04-09T00:31:39.340Z,48.67
2023-04-09T00:35:41.149Z,47.80
2023-04-09T00:39:42.935Z,48.38
2023-04-09T00:43:44.578Z,58.80
2023-04-09T00:47:46.889Z,50.05
2023-04-09T00:51:48.996Z,54.43
2023-04-09T00:55:50.730Z,55.42
2023-04-09T00:59:52.409Z,56.92
2023-04-09T01:03:54.673Z,57.25
2023-04-09T01:08:11.119Z,64.60
2023-04-09T01:12:25.539Z,61.40
2023-04-09T01:16:32.551Z,63.90
2023-04-09T01:20:43.772Z,57.42
2023-04-09T01:25:02.879Z,62.38
2023-04-09T01:29:07.072Z,55.17
2023-04-09T01:33:10.242Z,57.03
2023-04-09T01:41:18.112Z,55.90
2023-04-09T01:45:20.861Z,52.72
2023-04-09T01:49:22.715Z,51.67
2023-04-09T01:53:28.190Z,55.95
2023-04-09T01:57:31.014Z,49.70
2023-04-09T02:01:45.186Z,61.95
2023-04-09T02:05:55.830Z,60.03
2023-04-09T02:10:00.843Z,62.10
2023-04-09T02:14:04.213Z,58.63
2023-04-09T02:18:20.220Z,54.45
2023-04-09T02:22:21.893Z,62.47
2023-04-09T02:26:24.473Z,65.88
2023-04-09T02:30:26.195Z,66.78
2023-04-09T02:34:28.294Z,63.90
2023-04-09T02:38:29.994Z,64.50
2023-04-09T02:42:31.622Z,61.47
2023-04-09T02:46:33.487Z,62.20
2023-04-09T02:50:35.309Z,58.13
2023-04-09T02:54:37.048Z,66.85
2023-04-09T02:58:38.742Z,54.70
2023-04-09T03:02:40.536Z,59.40
2023-04-09T03:06:42.295Z,70.53
2023-04-09T03:10:44.013Z,58.60
2023-04-09T03:14:45.896Z,54.75
2023-04-09T03:18:47.637Z,60.85
2023-04-09T03:22:49.357Z,67.57
2023-04-09T03:26:51.225Z,66.90
2023-04-09T03:30:52.980Z,72.18
2023-04-09T03:34:54.687Z,68.22
2023-04-09T03:38:56.408Z,71.47
2023-04-09T03:42:58.136Z,64.97
2023-04-09T03:46:59.923Z,69.03
2023-04-09T03:51:04.403Z,66.45
2023-04-09T03:55:06.665Z,60.13
2023-04-09T03:59:08.349Z,49.70
2023-04-09T04:03:12.369Z,68.03
2023-04-09T04:07:14.326Z,75.35
2023-04-09T04:11:16.096Z,65.68
2023-04-09T04:15:19.622Z,64.63
2023-04-09T04:19:21.508Z,73.35
2023-04-09T04:23:23.375Z,72.60
2023-04-09T04:27:25.243Z,68.82
2023-04-09T04:31:26.913Z,71.00
2023-04-09T04:35:28.608Z,65.97
2023-04-09T04:39:31.231Z,65.80
2023-04-09T04:43:33.172Z,68.82
2023-04-09T04:47:35.116Z,68.97
2023-04-09T04:51:36.839Z,69.32
2023-04-09T04:55:41.734Z,67.57
2023-04-09T04:59:44.397Z,79.43
2023-04-09T05:03:46.222Z,59.05
2023-04-09T05:07:47.953Z,59.50
2023-04-09T05:11:49.755Z,67.22
2023-04-09T05:15:51.754Z,62.45
2023-04-09T05:19:54.291Z,70.35
2023-04-09T05:23:56.431Z,60.83
2023-04-09T05:27:58.412Z,67.57
2023-04-09T05:32:00.723Z,58.70
2023-04-09T05:36:02.594Z,58.97
2023-04-09T05:40:04.832Z,62.53
2023-04-09T05:44:06.525Z,68.38
2023-04-09T05:48:09.870Z,62.38
2023-04-09T05:52:11.562Z,58.28
2023-04-09T05:56:15.064Z,60.75
2023-04-09T06:00:18.540Z,62.08
2023-04-09T06:04:20.806Z,67.13
2023-04-09T06:08:22.621Z,51.73
2023-04-09T06:12:24.285Z,61.03
2023-04-09T06:16:26.164Z,54.53
2023-04-09T06:20:27.851Z,57.00
2023-04-09T06:24:32.295Z,54.30
2023-04-09T06:28:34.009Z,53.83
2023-04-09T06:32:46.774Z,55.22
2023-04-09T06:36:52.970Z,58.40
2023-04-09T06:40:56.907Z,54.42
2023-04-09T06:44:58.573Z,54.47
2023-04-09T06:49:00.242Z,51.60
2023-04-09T06:53:02.554Z,48.92
2023-04-09T06:57:04.266Z,53.40
2023-04-09T07:01:06.394Z,50.15
2023-04-09T07:05:08.960Z,47.72
2023-04-09T07:09:10.639Z,30.98
2023-04-09T07:13:12.312Z,31.02
2023-04-09T07:17:14.037Z,26.50
2023-04-09T07:21:16.300Z,30.90
2023-04-09T07:25:18.067Z,22.63
2023-04-09T07:29:21.030Z,22.30
2023-04-09T07:33:22.829Z,15.20
2023-04-09T07:37:24.514Z,18.58
2023-04-09T07:41:26.244Z,16.70
2023-04-09T07:45:28.000Z,13.57
2023-04-09T07:49:29.739Z,11.52
2023-04-09T07:53:31.426Z,12.85
2023-04-09T07:57:33.289Z,9.73
2023-04-09T08:01:35.011Z,10.02
2023-04-09T08:05:38.014Z,11.45
2023-04-09T08:09:39.716Z,14.00
2023-04-09T08:13:41.673Z,10.70
2023-04-09T08:17:43.437Z,9.13
2023-04-09T08:21:46.107Z,8.98
2023-04-09T08:25:47.810Z,9.88
2023-04-09T08:29:49.671Z,8.15
2023-04-09T08:33:53.529Z,10.15
2023-04-09T08:37:56.792Z,11.10
2023-04-09T08:42:02.835Z,7.43
2023-04-09T08:46:04.663Z,9.38
2023-04-09T08:50:07.881Z,10.85
2023-04-09T08:54:09.724Z,7.97
2023-04-09T08:58:11.493Z,7.03
2023-04-09T09:02:14.135Z,7.63
2023-04-09T09:06:23.616Z,8.57
2023-04-09T09:10:37.816Z,11.13
2023-04-09T09:14:39.486Z,10.38
2023-04-09T09:18:43.153Z,7.82
2023-04-09T09:22:55.965Z,6.53
2023-04-09T09:26:58.812Z,8.70
2023-04-09T09:31:12.408Z,8.00
2023-04-09T09:35:14.232Z,11.15
2023-04-09T09:39:17.714Z,7.10
2023-04-09T09:43:19.547Z,9.15
2023-04-09T09:47:22.695Z,8.55
2023-04-09T09:51:29.301Z,5.20
2023-04-09T09:55:32.997Z,8.07
2023-04-09T09:59:39.122Z,7.40
2023-04-09T10:03:44.050Z,7.90
2023-04-09T10:07:46.537Z,12.98
2023-04-09T10:11:49.584Z,5.97
2023-04-09T10:20:22.827Z,7.68
2023-04-09T10:24:25.173Z,7.47
2023-04-09T10:28:27.221Z,8.77
2023-04-09T10:32:36.298Z,5.57
2023-04-09T10:36:38.084Z,9.80
2023-04-09T10:40:53.337Z,6.97
2023-04-09T10:45:06.566Z,10.18
2023-04-09T10:49:19.181Z,7.50
2023-04-09T10:53:26.349Z,9.80
2023-04-09T10:57:28.138Z,7.25
2023-04-09T11:01:30.830Z,5.47
2023-04-09T11:05:34.592Z,7.50
2023-04-09T11:09:36.612Z,8.27
2023-04-09T11:13:41.555Z,8.40
2023-04-09T11:17:43.882Z,7.25
2023-04-09T11:21:46.352Z,7.50
2023-04-09T11:25:52.271Z,7.35
2023-04-09T11:29:56.794Z,6.40
2023-04-09T11:33:58.649Z,7.47
2023-04-09T11:38:00.413Z,6.05
2023-04-09T11:42:02.343Z,5.93
2023-04-09T11:46:04.633Z,6.57
2023-04-09T11:50:08.004Z,6.05
2023-04-09T11:54:12.330Z,7.07
2023-04-09T11:58:14.378Z,6.00
2023-04-09T12:02:19.229Z,6.07
2023-04-09T12:06:25.684Z,6.05
2023-04-09T12:10:31.957Z,5.40
2023-04-09T12:14:34.668Z,6.43
2023-04-09T12:18:38.013Z,6.32
2023-04-09T12:22:41.270Z,6.97
2023-04-09T12:26:43.621Z,8.10
2023-04-09T12:30:45.463Z,5.03
2023-04-09T12:34:47.504Z,5.95
2023-04-09T12:38:49.546Z,7.53
2023-04-09T12:42:51.651Z,10.80
2023-04-09T12:46:53.618Z,5.43
2023-04-09T12:50:55.341Z,6.07
2023-04-09T12:54:56.979Z,6.47
2023-04-09T12:58:58.676Z,6.45
2023-04-09T13:03:00.491Z,7.85
2023-04-09T13:07:04.331Z,7.88
2023-04-09T13:11:06.049Z,5.63
2023-04-09T13:15:07.942Z,9.77
2023-04-09T13:19:10.042Z,5.68
2023-04-09T13:23:11.792Z,6.87
2023-04-09T13:27:14.229Z,6.20
2023-04-09T13:31:16.034Z,9.50
2023-04-09T13:35:19.038Z,6.22
2023-04-09T13:39:20.829Z,7.28
2023-04-09T13:43:27.845Z,6.05
2023-04-09T13:47:29.676Z,12.93
2023-04-09T13:51:31.534Z,6.60
2023-04-09T13:55:33.256Z,5.45
2023-04-09T13:59:34.931Z,6.80
2023-04-09T14:03:40.090Z,5.88
2023-04-09T14:07:41.804Z,10.18
2023-04-09T14:11:43.457Z,8.25
2023-04-09T14:15:46.193Z,6.38
2023-04-09T14:19:47.888Z,5.75
2023-04-09T14:23:49.703Z,5.72
2023-04-09T14:27:52.034Z,6.57
2023-04-09T14:31:55.989Z,6.88
2023-04-09T14:35:59.092Z,5.78
2023-04-09T14:40:02.430Z,7.43
2023-04-09T14:44:04.319Z,4.95
2023-04-09T14:48:06.386Z,7.35
2023-04-09T14:52:08.395Z,7.83
2023-04-09T14:56:13.102Z,5.68
2023-04-09T15:00:15.400Z,8.05
2023-04-09T15:04:19.997Z,6.22
2023-04-09T15:08:21.726Z,7.20
2023-04-09T15:12:23.394Z,9.98
2023-04-09T15:16:27.405Z,7.13
2023-04-09T15:20:29.250Z,6.68
2023-04-09T15:24:31.416Z,7.85
2023-04-09T15:28:36.323Z,8.60
2023-04-09T15:32:38.191Z,5.60
2023-04-09T15:36:40.009Z,9.63
2023-04-09T15:40:42.431Z,8.95
2023-04-09T15:44:44.090Z,7.10
2023-04-09T15:48:45.731Z,6.53
2023-04-09T15:52:47.424Z,7.80
2023-04-09T15:56:49.826Z,6.25
2023-04-09T16:00:51.709Z,6.70
2023-04-09T16:04:53.376Z,6.65
2023-04-09T16:08:55.466Z,5.32
2023-04-09T16:12:57.425Z,6.55
2023-04-09T16:16:59.204Z,6.55
2023-04-09T16:21:01.732Z,5.35
2023-04-09T16:25:06.024Z,7.85
2023-04-09T16:29:08.053Z,7.18
2023-04-09T16:33:10.624Z,7.13
2023-04-09T16:37:12.280Z,5.70
2023-04-09T16:41:14.072Z,5.50
2023-04-09T16:45:16.208Z,4.90
2023-04-09T16:49:17.930Z,6.97
2023-04-09T16:53:19.771Z,7.50
2023-04-09T16:57:21.541Z,9.00
2023-04-09T17:01:23.257Z,5.53
2023-04-09T17:05:25.054Z,5.97
2023-04-09T17:09:27.036Z,6.82
2023-04-09T17:13:30.120Z,6.80
2023-04-09T17:17:33.314Z,8.43
2023-04-09T17:21:35.045Z,7.05
2023-04-09T17:25:37.006Z,5.97
2023-04-09T17:29:38.991Z,7.87
2023-04-09T17:33:42.215Z,8.52
2023-04-09T17:37:43.886Z,6.95
2023-04-09T17:41:45.777Z,5.72
2023-04-09T17:45:47.558Z,7.82
2023-04-09T17:49:49.246Z,9.43
2023-04-09T17:53:53.716Z,10.35
2023-04-09T17:57:58.034Z,14.13
2023-04-09T18:01:59.998Z,12.27
2023-04-09T18:06:02.329Z,11.13
2023-04-09T18:10:04.594Z,7.70
2023-04-09T18:14:08.047Z,6.20
2023-04-09T18:18:09.667Z,8.25
2023-04-09T18:22:11.461Z,10.23
2023-04-09T18:26:13.173Z,7.65
2023-04-09T18:30:14.907Z,9.02
2023-04-09T18:34:16.734Z,8.07
2023-04-09T18:38:18.509Z,9.00
2023-04-09T18:42:20.285Z,8.63
2023-04-09T18:46:25.205Z,8.75
2023-04-09T18:50:26.914Z,12.93
2023-04-09T18:54:28.860Z,10.80
2023-04-09T18:58:30.588Z,10.90
2023-04-09T19:02:32.651Z,15.48
2023-04-09T19:06:35.993Z,19.63
2023-04-09T19:10:38.329Z,19.65
2023-04-09T19:14:42.843Z,10.57
2023-04-09T19:18:44.777Z,13.57
2023-04-09T19:22:48.206Z,8.88
2023-04-09T19:26:50.827Z,10.82
2023-04-09T19:30:53.050Z,14.05
2023-04-09T19:34:54.689Z,19.77
2023-04-09T19:38:56.491Z,21.30
2023-04-09T19:42:58.254Z,11.50
2023-04-09T19:47:00.043Z,13.10
2023-04-09T19:51:05.291Z,11.00
2023-04-09T19:55:07.658Z,11.00
2023-04-09T19:59:09.348Z,10.87
2023-04-09T20:03:11.315Z,10.98
2023-04-09T20:07:13.187Z,9.18
2023-04-09T20:11:19.026Z,16.13
2023-04-09T20:15:20.813Z,12.65
2023-04-09T20:19:22.732Z,12.93
2023-04-09T20:23:24.470Z,14.40
2023-04-09T20:27:27.002Z,12.73
2023-04-09T20:31:29.121Z,10.65
2023-04-09T20:35:35.288Z,12.45
2023-04-09T20:39:37.252Z,12.90
2023-04-09T20:43:39.141Z,19.67
2023-04-09T20:47:41.037Z,33.50
2023-04-09T20:51:42.808Z,12.43
2023-04-09T20:55:45.862Z,15.38
2023-04-09T20:59:48.313Z,13.50
2023-04-09T21:03:50.264Z,11.93
2023-04-09T21:07:53.136Z,11.65
2023-04-09T21:11:54.946Z,16.15
2023-04-09T21:16:17.076Z,13.15
2023-04-09T21:20:19.441Z,10.75
2023-04-09T21:24:21.277Z,14.90
2023-04-09T21:28:23.014Z,11.70
2023-04-09T21:32:25.127Z,13.60
2023-04-09T21:36:27.161Z,11.70
2023-04-09T21:40:31.966Z,11.93
2023-04-09T21:44:33.782Z,11.50
2023-04-09T21:48:35.545Z,13.25
2023-04-09T21:52:37.408Z,11.15
2023-04-09T21:56:39.279Z,14.20
2023-04-09T22:00:41.301Z,23.00
2023-04-09T22:04:43.067Z,11.35
2023-04-09T22:08:55.743Z,10.93
2023-04-09T22:12:58.763Z,11.80
2023-04-09T22:17:01.706Z,13.57
2023-04-09T22:21:04.054Z,12.23
2023-04-09T22:25:07.016Z,13.50
2023-04-09T22:29:08.767Z,12.00
2023-04-09T22:33:10.634Z,10.38
2023-04-09T22:37:12.397Z,19.42
2023-04-09T22:41:15.900Z,9.90
2023-04-09T22:45:18.213Z,10.07
2023-04-09T22:49:19.942Z,12.10
2023-04-09T22:53:21.797Z,13.82
2023-04-09T22:57:23.470Z,12.93
2023-04-09T23:01:25.504Z,11.93
2023-04-09T23:05:27.445Z,10.90
2023-04-09T23:09:30.878Z,9.55
2023-04-09T23:13:32.674Z,13.02
2023-04-09T23:17:35.146Z,11.85
2023-04-09T23:21:37.075Z,11.93
2023-04-09T23:25:38.745Z,15.23
2023-04-09T23:29:40.414Z,12.30
2023-04-09T23:33:42.094Z,12.02
2023-04-09T23:37:43.965Z,11.20
2023-04-09T23:41:45.790Z,11.48
2023-04-09T23:45:49.817Z,16.00
2023-04-09T23:49:51.558Z,12.43
2023-04-09T23:53:53.453Z,11.20
2023-04-09T23:57:56.450Z,10.18
